createdAt,value
2019-05-02T00:02:14.915Z,0.77
2019-05-02T00:04:43.330Z,0.40
2019-05-02T00:07:14.533Z,0.63
2019-05-02T00:09:48.530Z,0.40
2019-05-02T00:12:13.256Z,0.67
2019-05-02T00:14:42.145Z,0.40
2019-05-02T00:17:10.490Z,0.63
2019-05-02T00:19:38.667Z,0.00
2019-05-02T00:22:12.210Z,0.33
2019-05-02T00:24:39.217Z,0.37
2019-05-02T00:27:07.886Z,0.20
2019-05-02T00:29:36.013Z,0.30
2019-05-02T00:32:04.326Z,0.30
2019-05-02T00:34:32.427Z,0.00
2019-05-02T00:37:00.556Z,0.27
2019-05-02T00:39:28.705Z,0.57
2019-05-02T00:41:56.912Z,0.10
2019-05-02T00:44:25.101Z,0.17
2019-05-02T00:46:56.058Z,0.20
2019-05-02T00:49:24.237Z,0.20
2019-05-02T00:51:52.370Z,0.37
2019-05-02T00:54:24.118Z,0.40
2019-05-02T00:56:51.595Z,0.20
2019-05-02T00:59:19.692Z,0.30
2019-05-02T01:01:59.998Z,0.30
2019-05-02T01:04:29.944Z,0.40
2019-05-02T01:06:58.093Z,0.10
2019-05-02T01:09:26.176Z,0.20
2019-05-02T01:11:54.323Z,0.30
2019-05-02T01:14:22.419Z,0.30
2019-05-02T01:16:54.344Z,0.20
2019-05-02T01:19:20.409Z,0.20
2019-05-02T01:21:48.535Z,0.63
2019-05-02T01:24:16.773Z,0.10
2019-05-02T01:26:46.508Z,0.37
2019-05-02T01:29:16.281Z,0.30
2019-05-02T01:31:49.929Z,0.17
2019-05-02T01:34:17.962Z,0.17
2019-05-02T01:36:49.123Z,0.27
2019-05-02T01:39:17.357Z,0.20
2019-05-02T01:41:45.472Z,0.30
2019-05-02T01:44:13.623Z,0.20
2019-05-02T01:46:41.848Z,0.43
2019-05-02T01:49:09.978Z,0.33
2019-05-02T01:51:41.916Z,0.40
2019-05-02T01:54:10.039Z,0.20
2019-05-02T01:56:37.861Z,0.27
2019-05-02T01:59:06.061Z,0.40
2019-05-02T02:01:34.213Z,0.43
2019-05-02T02:04:02.345Z,0.20
2019-05-02T02:06:30.486Z,0.20
2019-05-02T02:09:03.255Z,0.40
2019-05-02T02:11:33.672Z,0.20
2019-05-02T02:13:58.327Z,0.40
2019-05-02T02:16:26.493Z,0.40
2019-05-02T02:18:59.097Z,0.30
2019-05-02T02:21:30.456Z,0.77
2019-05-02T02:24:00.219Z,0.97
2019-05-02T02:26:28.329Z,0.00
2019-05-02T02:28:56.420Z,0.27
2019-05-02T02:31:24.527Z,0.30
2019-05-02T02:33:52.674Z,1.20
2019-05-02T02:36:30.228Z,0.30
2019-05-02T02:38:50.656Z,0.20
2019-05-02T02:41:18.818Z,0.83
2019-05-02T02:43:48.594Z,0.20
2019-05-02T02:46:18.348Z,0.47
2019-05-02T02:48:46.454Z,0.20
2019-05-02T02:51:22.694Z,0.37
2019-05-02T02:53:44.433Z,0.50
2019-05-02T02:56:12.546Z,0.20
2019-05-02T02:58:45.839Z,0.00
2019-05-02T03:01:10.581Z,0.40
2019-05-02T03:03:38.694Z,0.40
2019-05-02T03:06:08.181Z,0.00
2019-05-02T03:08:45.005Z,0.00
2019-05-02T03:11:06.838Z,0.10
2019-05-02T03:13:51.423Z,0.13
2019-05-02T03:16:11.112Z,0.20
2019-05-02T03:18:40.752Z,0.00
2019-05-02T03:21:13.392Z,0.20
2019-05-02T03:23:38.994Z,0.27
2019-05-02T03:26:07.980Z,0.27
2019-05-02T03:28:37.042Z,0.13
2019-05-02T03:31:21.650Z,0.03
2019-05-02T03:33:51.602Z,0.37
2019-05-02T03:36:05.314Z,0.40
2019-05-02T03:38:35.191Z,0.20
2019-05-02T03:41:03.416Z,0.50
2019-05-02T03:43:35.437Z,0.30
2019-05-02T03:46:03.620Z,0.10
2019-05-02T03:48:31.831Z,0.17
2019-05-02T03:50:59.980Z,0.07
2019-05-02T03:53:28.082Z,0.30
2019-05-02T03:55:56.358Z,0.20
2019-05-02T03:58:24.752Z,0.13
2019-05-02T04:01:00.900Z,0.17
2019-05-02T04:03:22.998Z,0.03
2019-05-02T04:05:51.202Z,0.20
2019-05-02T04:08:20.712Z,0.23
2019-05-02T04:10:52.558Z,0.23
2019-05-02T04:13:21.219Z,0.10
2019-05-02T04:15:49.430Z,0.07
2019-05-02T04:18:18.021Z,0.50
2019-05-02T04:20:49.577Z,0.20
2019-05-02T04:23:21.450Z,0.30
2019-05-02T04:25:48.003Z,0.20
2019-05-02T04:28:16.539Z,0.30
2019-05-02T04:30:45.285Z,0.10
2019-05-02T04:33:14.620Z,0.10
2019-05-02T04:35:42.841Z,0.10
2019-05-02T04:38:20.396Z,0.20
2019-05-02T04:40:46.368Z,0.53
2019-05-02T04:43:11.619Z,0.40
2019-05-02T04:45:53.151Z,0.10
2019-05-02T04:48:09.795Z,0.20
2019-05-02T04:50:38.002Z,0.40
2019-05-02T04:53:08.617Z,0.30
2019-05-02T04:55:38.043Z,0.10
2019-05-02T04:58:08.358Z,0.00
2019-05-02T05:00:38.944Z,0.63
2019-05-02T05:03:07.261Z,0.10
2019-05-02T05:05:37.779Z,0.27
2019-05-02T05:08:07.274Z,0.47
2019-05-02T05:10:41.518Z,0.50
2019-05-02T05:13:05.133Z,0.03
2019-05-02T05:15:40.265Z,0.10
2019-05-02T05:18:04.644Z,0.10
2019-05-02T05:20:32.990Z,0.10
2019-05-02T05:23:01.201Z,0.47
2019-05-02T05:25:34.017Z,0.10
2019-05-02T05:28:05.876Z,0.10
2019-05-02T05:30:31.997Z,0.20
2019-05-02T05:33:00.110Z,0.00
2019-05-02T05:35:28.258Z,0.03
2019-05-02T05:37:57.315Z,0.30
2019-05-02T05:40:30.344Z,0.00
2019-05-02T05:42:57.253Z,0.20
2019-05-02T05:45:27.767Z,0.20
2019-05-02T05:47:57.566Z,0.30
2019-05-02T05:50:25.018Z,0.00
2019-05-02T05:52:53.235Z,0.30
2019-05-02T05:55:24.435Z,0.20
2019-05-02T05:57:59.624Z,0.13
2019-05-02T06:00:23.144Z,0.20
2019-05-02T06:02:56.221Z,0.23
2019-05-02T06:05:20.936Z,0.10
2019-05-02T06:07:49.074Z,0.00
2019-05-02T06:10:17.232Z,0.20
2019-05-02T06:12:45.539Z,0.00
2019-05-02T06:15:14.101Z,0.20
2019-05-02T06:17:42.249Z,0.10
2019-05-02T06:20:10.560Z,0.00
2019-05-02T06:22:38.676Z,0.00
2019-05-02T06:25:09.312Z,0.10
2019-05-02T06:27:37.228Z,0.10
2019-05-02T06:30:06.098Z,0.10
2019-05-02T06:32:34.230Z,0.10
2019-05-02T06:35:02.369Z,0.40
2019-05-02T06:37:30.589Z,0.10
2019-05-02T06:40:03.260Z,0.20
2019-05-02T06:42:32.813Z,0.20
2019-05-02T06:44:59.709Z,0.30
2019-05-02T06:47:28.285Z,0.20
2019-05-02T06:50:01.210Z,0.20
2019-05-02T06:52:27.159Z,0.13
2019-05-02T06:54:58.041Z,0.27
2019-05-02T06:57:26.009Z,0.00
2019-05-02T06:59:54.679Z,0.10
2019-05-02T07:02:28.296Z,0.40
2019-05-02T07:04:54.943Z,0.50
2019-05-02T07:07:25.136Z,0.63
2019-05-02T07:09:53.788Z,0.20
2019-05-02T07:12:21.983Z,0.37
2019-05-02T07:14:50.193Z,0.50
2019-05-02T07:17:38.396Z,0.30
2019-05-02T07:20:12.794Z,0.00
2019-05-02T07:22:41.023Z,0.10
2019-05-02T07:25:16.708Z,0.47
2019-05-02T07:27:44.833Z,0.30
2019-05-02T07:30:14.296Z,0.07
2019-05-02T07:32:42.411Z,0.33
2019-05-02T07:35:10.534Z,0.00
2019-05-02T07:37:38.670Z,0.90
2019-05-02T07:40:12.159Z,0.20
2019-05-02T07:42:41.930Z,0.40
2019-05-02T07:45:09.442Z,0.10
2019-05-02T07:47:40.315Z,0.10
2019-05-02T07:50:10.405Z,0.20
2019-05-02T07:52:40.760Z,0.43
2019-05-02T07:55:10.066Z,0.10
2019-05-02T07:57:37.659Z,0.10
2019-05-02T08:00:12.871Z,0.40
2019-05-02T08:02:41.086Z,0.10
2019-05-02T08:05:21.819Z,0.13
2019-05-02T08:07:46.783Z,0.20
2019-05-02T08:10:16.524Z,0.33
2019-05-02T08:12:46.949Z,0.20
2019-05-02T08:15:15.387Z,0.37
2019-05-02T08:17:43.600Z,0.20
2019-05-02T08:20:13.707Z,0.97
2019-05-02T08:22:44.020Z,0.20
2019-05-02T08:25:11.732Z,0.37
2019-05-02T08:27:58.107Z,0.27
2019-05-02T08:30:27.913Z,0.50
2019-05-02T08:32:56.054Z,0.40
2019-05-02T08:35:24.228Z,0.53
2019-05-02T08:37:52.372Z,0.40
2019-05-02T08:40:21.158Z,0.25
2019-05-02T08:42:49.282Z,0.43
2019-05-02T08:45:17.461Z,0.10
2019-05-02T08:47:45.638Z,0.43
2019-05-02T08:50:13.940Z,0.30
2019-05-02T08:52:42.772Z,0.50
2019-05-02T08:55:12.081Z,0.40
2019-05-02T08:57:40.191Z,0.50
2019-05-02T09:00:10.032Z,0.20
2019-05-02T09:02:41.479Z,0.10
2019-05-02T09:05:08.024Z,0.60
2019-05-02T09:07:37.147Z,0.30
2019-05-02T09:10:07.862Z,0.43
2019-05-02T09:12:36.906Z,0.07
2019-05-02T09:15:06.235Z,0.40
2019-05-02T09:17:38.407Z,0.23
2019-05-02T09:20:14.922Z,0.60
2019-05-02T09:22:36.892Z,0.93
2019-05-02T09:25:06.506Z,0.10
2019-05-02T09:27:34.607Z,0.83
2019-05-02T09:30:04.045Z,1.07
2019-05-02T09:32:32.318Z,0.83
2019-05-02T09:35:02.143Z,0.20
2019-05-02T09:37:32.096Z,0.63
2019-05-02T09:40:02.247Z,0.57
2019-05-02T09:42:32.364Z,1.43
2019-05-02T09:45:02.967Z,0.30
2019-05-02T09:47:35.235Z,0.13
2019-05-02T09:50:20.542Z,0.00
2019-05-02T09:52:48.067Z,0.30
2019-05-02T09:55:16.749Z,0.30
2019-05-02T09:57:45.132Z,0.10
2019-05-02T10:00:16.298Z,0.20
2019-05-02T10:02:44.443Z,0.60
2019-05-02T10:05:13.421Z,0.43
2019-05-02T10:07:42.003Z,0.43
2019-05-02T10:10:12.599Z,0.57
2019-05-02T10:12:42.722Z,0.07
2019-05-02T10:15:12.910Z,0.37
2019-05-02T10:17:44.791Z,1.17
2019-05-02T10:20:12.492Z,1.03
2019-05-02T10:22:41.837Z,0.10
2019-05-02T10:28:10.178Z,0.20
2019-05-02T10:30:38.404Z,0.30
2019-05-02T10:33:06.685Z,1.27
2019-05-02T10:35:40.413Z,0.33
2019-05-02T10:38:09.503Z,0.77
2019-05-02T10:40:36.260Z,0.47
2019-05-02T10:43:04.714Z,0.43
2019-05-02T10:45:33.056Z,0.97
2019-05-02T10:48:02.296Z,0.53
2019-05-02T10:50:32.875Z,0.30
2019-05-02T10:53:05.430Z,0.63
2019-05-02T10:55:33.082Z,0.47
2019-05-02T10:58:01.871Z,1.17
2019-05-02T11:00:35.570Z,0.53
2019-05-02T11:03:22.496Z,0.20
2019-05-02T11:06:05.509Z,0.37
2019-05-02T11:08:32.099Z,0.27
2019-05-02T11:11:05.930Z,1.20
2019-05-02T11:13:34.696Z,0.60
2019-05-02T11:16:22.782Z,0.30
2019-05-02T11:18:58.521Z,0.30
2019-05-02T11:21:26.673Z,0.10
2019-05-02T11:23:54.931Z,0.80
2019-05-02T11:26:25.152Z,0.40
2019-05-02T11:28:53.333Z,0.20
2019-05-02T11:31:21.934Z,0.30
2019-05-02T11:33:52.714Z,0.10
2019-05-02T11:36:22.354Z,0.60
2019-05-02T11:39:00.313Z,0.20
2019-05-02T11:41:22.270Z,0.07
2019-05-02T11:43:54.095Z,0.23
2019-05-02T11:46:22.069Z,0.30
2019-05-02T11:48:56.227Z,0.60
2019-05-02T11:51:20.016Z,0.80
2019-05-02T11:53:48.144Z,0.63
2019-05-02T11:56:16.427Z,0.70
2019-05-02T11:58:48.209Z,1.23
2019-05-02T12:01:19.222Z,0.07
2019-05-02T12:03:52.442Z,0.80
2019-05-02T12:06:22.497Z,0.23
2019-05-02T12:08:52.615Z,0.57
2019-05-02T12:11:22.843Z,1.03
2019-05-02T12:13:52.729Z,0.77
2019-05-02T12:16:22.929Z,0.30
2019-05-02T12:18:50.721Z,0.80
2019-05-02T12:21:18.921Z,0.37
2019-05-02T12:23:47.129Z,0.53
2019-05-02T12:26:15.396Z,0.77
2019-05-02T12:28:43.590Z,0.40
2019-05-02T12:31:16.680Z,0.40
2019-05-02T12:33:43.219Z,0.83
2019-05-02T12:36:11.999Z,0.60
2019-05-02T12:38:42.048Z,2.20
2019-05-02T12:41:20.238Z,5.43
2019-05-02T12:43:41.609Z,8.30
2019-05-02T12:46:11.615Z,7.57
2019-05-02T12:48:39.648Z,6.33
2019-05-02T12:51:07.779Z,5.90
2019-05-02T12:53:35.912Z,4.27
2019-05-02T12:56:04.229Z,4.43
2019-05-02T12:58:32.632Z,5.80
2019-05-02T13:01:03.990Z,7.37
2019-05-02T13:03:43.655Z,6.50
2019-05-02T13:06:12.378Z,5.87
2019-05-02T13:08:49.117Z,2.53
2019-05-02T13:11:25.334Z,3.97
2019-05-02T13:13:54.997Z,3.93
2019-05-02T13:16:23.218Z,3.30
2019-05-02T13:18:51.901Z,4.80
2019-05-02T13:21:39.193Z,3.33
2019-05-02T13:23:58.999Z,3.23
2019-05-02T13:26:27.423Z,3.97
2019-05-02T13:28:55.613Z,1.67
2019-05-02T13:31:27.885Z,1.40
2019-05-02T13:34:06.406Z,1.07
2019-05-02T13:36:42.345Z,0.57
2019-05-02T13:39:13.409Z,0.83
2019-05-02T13:41:42.813Z,0.37
2019-05-02T13:44:12.951Z,0.77
2019-05-02T13:46:41.949Z,0.73
2019-05-02T13:49:10.274Z,1.13
2019-05-02T13:51:38.407Z,1.03
2019-05-02T13:54:06.720Z,1.47
2019-05-02T13:56:54.200Z,1.47
2019-05-02T13:59:22.546Z,1.00
2019-05-02T14:01:52.217Z,0.33
2019-05-02T14:04:22.956Z,1.00
2019-05-02T14:06:52.673Z,1.10
2019-05-02T14:09:34.037Z,0.63
2019-05-02T14:12:04.405Z,0.57
2019-05-02T14:14:32.699Z,0.43
2019-05-02T14:17:02.863Z,1.20
2019-05-02T14:19:31.934Z,0.67
2019-05-02T14:22:00.198Z,0.83
2019-05-02T14:24:28.325Z,0.47
2019-05-02T14:26:56.502Z,0.40
2019-05-02T14:29:24.700Z,0.47
2019-05-02T14:31:52.800Z,0.50
2019-05-02T14:34:22.595Z,0.40
2019-05-02T14:36:54.247Z,0.77
2019-05-02T14:39:22.587Z,1.03
2019-05-02T14:41:52.611Z,0.90
2019-05-02T14:44:23.271Z,0.70
2019-05-02T14:46:52.274Z,0.50
2019-05-02T14:49:23.961Z,1.47
2019-05-02T14:51:52.366Z,0.47
2019-05-02T14:54:20.279Z,0.43
2019-05-02T14:57:02.130Z,0.53
2019-05-02T14:59:32.125Z,0.70
2019-05-02T15:02:03.912Z,0.27
2019-05-02T15:04:32.256Z,1.13
2019-05-02T15:07:02.095Z,0.40
2019-05-02T15:09:32.235Z,1.40
2019-05-02T15:12:03.038Z,1.13
2019-05-02T15:14:32.954Z,1.77
2019-05-02T15:17:02.562Z,0.43
2019-05-02T15:19:32.985Z,0.50
2019-05-02T15:22:02.147Z,0.97
2019-05-02T15:24:33.447Z,1.40
2019-05-02T15:27:05.498Z,1.43
2019-05-02T15:29:32.125Z,1.30
2019-05-02T15:32:12.646Z,1.07
2019-05-02T15:35:02.399Z,0.87
2019-05-02T15:37:32.125Z,0.97
2019-05-02T15:42:31.911Z,0.67
2019-05-02T15:45:01.849Z,0.50
2019-05-02T15:47:31.951Z,1.40
2019-05-02T15:50:00.023Z,0.57
2019-05-02T15:52:32.628Z,0.83
2019-05-02T15:55:03.852Z,1.17
2019-05-02T15:57:37.943Z,1.10
2019-05-02T16:00:01.671Z,0.70
2019-05-02T16:02:32.108Z,0.50
2019-05-02T16:05:02.453Z,0.60
2019-05-02T16:07:30.325Z,0.07
2019-05-02T16:10:01.085Z,0.60
2019-05-02T16:12:31.927Z,0.50
2019-05-02T16:14:58.192Z,0.93
2019-05-02T16:17:27.987Z,0.57
2019-05-02T16:19:58.824Z,0.80
2019-05-02T16:22:27.807Z,0.50
2019-05-02T16:24:56.755Z,0.67
2019-05-02T16:27:45.010Z,1.17
2019-05-02T16:30:14.787Z,0.50
2019-05-02T16:32:44.570Z,0.20
2019-05-02T16:35:17.257Z,0.10
2019-05-02T16:37:46.734Z,0.37
2019-05-02T16:40:34.995Z,0.43
2019-05-02T16:43:03.254Z,0.57
2019-05-02T16:45:32.795Z,0.53
2019-05-02T16:48:03.224Z,0.50
2019-05-02T16:50:35.235Z,0.40
2019-05-02T16:53:02.264Z,0.70
2019-05-02T16:55:32.551Z,0.33
2019-05-02T16:58:04.253Z,0.80
2019-05-02T17:00:32.028Z,0.57
2019-05-02T17:03:02.050Z,1.00
2019-05-02T17:05:30.309Z,0.50
2019-05-02T17:08:02.133Z,0.33
2019-05-02T17:10:34.998Z,0.57
2019-05-02T17:13:03.483Z,0.40
2019-05-02T17:15:35.380Z,0.30
2019-05-02T17:18:04.969Z,0.30
2019-05-02T17:20:33.093Z,0.20
2019-05-02T17:23:05.175Z,2.23
2019-05-02T17:25:32.237Z,0.63
2019-05-02T17:28:05.786Z,0.40
2019-05-02T17:30:33.638Z,0.67
2019-05-02T17:33:01.880Z,0.20
2019-05-02T17:35:30.235Z,0.77
2019-05-02T17:37:58.444Z,0.63
2019-05-02T17:40:26.682Z,0.40
2019-05-02T17:42:57.162Z,0.77
2019-05-02T17:45:24.696Z,0.60
2019-05-02T17:47:52.828Z,0.60
2019-05-02T17:50:42.079Z,0.60
2019-05-02T17:53:11.685Z,0.27
2019-05-02T17:55:41.831Z,1.27
2019-05-02T17:58:16.364Z,0.57
2019-05-02T18:00:43.063Z,0.87
2019-05-02T18:03:12.440Z,0.40
2019-05-02T18:05:41.944Z,0.40
2019-05-02T18:08:11.567Z,0.70
2019-05-02T18:10:41.809Z,0.53
2019-05-02T18:13:12.035Z,0.80
2019-05-02T18:15:41.671Z,0.70
2019-05-02T18:18:09.763Z,0.90
2019-05-02T18:20:42.777Z,0.30
2019-05-02T18:23:07.738Z,0.57
2019-05-02T18:25:35.885Z,0.40
2019-05-02T18:28:04.378Z,0.30
2019-05-02T18:30:32.477Z,1.13
2019-05-02T18:33:05.342Z,0.70
2019-05-02T18:35:32.421Z,0.40
2019-05-02T18:38:02.528Z,0.60
2019-05-02T18:40:32.073Z,0.70
2019-05-02T18:43:02.181Z,0.37
2019-05-02T18:45:31.741Z,0.60
2019-05-02T18:48:02.352Z,0.57
2019-05-02T18:50:31.924Z,0.37
2019-05-02T18:53:00.296Z,0.63
2019-05-02T18:55:28.585Z,0.70
2019-05-02T18:57:56.980Z,0.60
2019-05-02T19:00:27.947Z,1.40
2019-05-02T19:02:56.559Z,0.80
2019-05-02T19:05:26.492Z,0.53
2019-05-02T19:07:56.423Z,0.40
2019-05-02T19:10:25.817Z,0.60
2019-05-02T19:12:56.176Z,1.20
2019-05-02T19:15:23.863Z,0.67
2019-05-02T19:17:52.914Z,0.60
2019-05-02T19:20:25.436Z,0.53
2019-05-02T19:22:56.847Z,0.30
2019-05-02T19:25:23.398Z,0.60
2019-05-02T19:27:57.686Z,0.80
2019-05-02T19:30:27.289Z,0.37
2019-05-02T19:32:57.905Z,0.30
2019-05-02T19:35:24.687Z,0.60
2019-05-02T19:37:55.109Z,0.20
2019-05-02T19:40:28.218Z,0.20
2019-05-02T19:42:57.308Z,0.40
2019-05-02T19:45:25.406Z,0.33
2019-05-02T19:47:56.478Z,0.63
2019-05-02T19:50:32.279Z,0.70
2019-05-02T19:53:02.049Z,0.30
2019-05-02T19:55:32.003Z,0.30
2019-05-02T19:58:02.341Z,0.40
2019-05-02T20:00:31.794Z,0.50
2019-05-02T20:03:01.660Z,0.50
2019-05-02T20:05:29.685Z,0.23
2019-05-02T20:07:57.972Z,0.20
2019-05-02T20:10:26.126Z,0.10
2019-05-02T20:12:54.253Z,0.10
2019-05-02T20:15:26.935Z,0.40
2019-05-02T20:18:00.408Z,0.40
2019-05-02T20:20:57.878Z,0.67
2019-05-02T20:23:31.652Z,0.00
2019-05-02T20:25:55.886Z,0.30
2019-05-02T20:28:25.457Z,0.30
2019-05-02T20:30:53.596Z,0.33
2019-05-02T20:33:22.268Z,0.50
2019-05-02T20:35:52.666Z,0.10
2019-05-02T20:38:21.965Z,0.73
2019-05-02T20:40:52.047Z,0.20
2019-05-02T20:43:20.198Z,0.30
2019-05-02T20:45:48.342Z,0.40
2019-05-02T20:48:16.577Z,0.10
2019-05-02T20:51:04.021Z,0.47
2019-05-02T20:53:34.194Z,0.60
2019-05-02T20:56:02.023Z,0.10
2019-05-02T20:58:30.235Z,0.30
2019-05-02T21:01:07.913Z,0.20
2019-05-02T21:03:29.413Z,0.10
2019-05-02T21:05:59.245Z,0.00
2019-05-02T21:08:44.040Z,0.40
2019-05-02T21:11:12.484Z,0.10
2019-05-02T21:13:41.821Z,0.43
2019-05-02T21:16:11.956Z,0.27
2019-05-02T21:18:42.097Z,0.20
2019-05-02T21:21:09.836Z,0.00
2019-05-02T21:23:44.773Z,0.10
2019-05-02T21:26:07.810Z,0.10
2019-05-02T21:28:36.023Z,0.17
2019-05-02T21:31:04.238Z,0.63
2019-05-02T21:33:33.925Z,0.10
2019-05-02T21:36:02.049Z,0.00
2019-05-02T21:38:31.882Z,0.10
2019-05-02T21:41:00.063Z,0.10
2019-05-02T21:43:28.246Z,0.27
2019-05-02T21:45:56.370Z,0.20
2019-05-02T21:48:25.914Z,0.10
2019-05-02T21:50:58.316Z,0.00
2019-05-02T21:53:32.709Z,0.03
2019-05-02T21:56:05.452Z,0.30
2019-05-02T21:58:33.611Z,0.20
2019-05-02T22:01:04.945Z,0.20
2019-05-02T22:03:33.137Z,0.10
2019-05-02T22:06:01.323Z,0.10
2019-05-02T22:08:29.486Z,0.40
2019-05-02T22:10:57.651Z,0.40
2019-05-02T22:13:25.789Z,0.00
2019-05-02T22:15:53.971Z,0.00
2019-05-02T22:18:22.122Z,0.00
2019-05-02T22:20:52.216Z,0.00
2019-05-02T22:23:20.449Z,0.00
2019-05-02T22:25:48.637Z,0.20
2019-05-02T22:28:16.855Z,0.07
2019-05-02T22:30:45.058Z,0.20
2019-05-02T22:33:13.214Z,0.30
2019-05-02T22:35:43.253Z,0.00
2019-05-02T22:38:22.246Z,0.00
2019-05-02T22:40:52.040Z,0.00
2019-05-02T22:43:22.081Z,0.10
2019-05-02T22:45:50.055Z,0.20
2019-05-02T22:48:18.197Z,0.10
2019-05-02T22:50:47.140Z,0.20
2019-05-02T22:53:15.352Z,0.00
2019-05-02T22:55:43.685Z,0.10
2019-05-02T22:58:11.819Z,0.00
2019-05-02T23:00:41.664Z,0.10
2019-05-02T23:03:09.982Z,0.23
2019-05-02T23:05:38.146Z,0.10
2019-05-02T23:08:06.252Z,0.00
2019-05-02T23:10:34.359Z,0.10
2019-05-02T23:13:02.498Z,0.20
2019-05-02T23:15:32.130Z,0.30
2019-05-02T23:18:19.653Z,0.00
2019-05-02T23:20:49.067Z,0.00
2019-05-02T23:23:17.174Z,0.13
2019-05-02T23:25:51.827Z,0.10
2019-05-02T23:28:27.469Z,0.10
2019-05-02T23:30:55.670Z,0.00
2019-05-02T23:33:25.452Z,0.20
2019-05-02T23:35:53.657Z,0.00
2019-05-02T23:38:21.847Z,0.00
2019-05-02T23:40:50.052Z,0.00
2019-05-02T23:43:18.152Z,0.00
2019-05-02T23:45:46.354Z,0.63
2019-05-02T23:48:14.464Z,0.10
2019-05-02T23:50:42.574Z,0.47
2019-05-02T23:53:12.721Z,0.10
2019-05-02T23:55:42.563Z,0.10
2019-05-02T23:58:11.957Z,0.20
